Atascosa, Texas
Current Conditions -  °F | °C
As of 3:35 AM on Wednesday 26 Nov 2014 (Local Time) from KCVB Reporting Station
Clear Clear  
Wind Chill: 33°   Ceiling: Unl
Heat Index: 38°   Visibility: 10mi
Dew Point: 32°   Wind: 6mph
Humidity: 80%   Direction: 310°NW
Pressure: 30.22"   Gusts: NA
Location:  29.28°N, 98.74°W
Report Text: KCVB 260935Z AUTO 31005KT 10SM CLR 03/00 A3022 RMK AO2 T00311001
Loading
Personal Weather Stations






























Interactive Weather Map New forecast layout! Learn more

10-Day Weather Forecast

Advertisements
Track Severe Weather on mobile